Terminal Aerodrome Forecast
Issued by NWS La Crosse, WI

Home | Current Version | Previous Version | Text Only | Print | Product List | Glossary On
Versions: 1 2 3 4 5 6 7 8 9 10 11 12 13 14 15 16 17 18 19 20 21 22 23 24 25 26 27 28 29 30 31 32 33 34 35
000
FTUS43 KARX 281120
TAFRST
TAF
KRST 281120Z 2812/2912 24007KT P6SM SCT080
     FM281500 28006KT P6SM SCT080
     FM281800 35007KT P6SM BKN012
     FM290100 03008KT P6SM BKN140=

USA.gov is the U.S. government's official web portal to all federal, state and local government web resources and services.